createdAt,value
2019-04-29T00:01:56.731Z,101727.19
2019-04-29T00:04:26.273Z,101725.41
2019-04-29T00:06:55.809Z,101732.22
2019-04-29T00:09:25.504Z,101732.77
2019-04-29T00:11:55.048Z,101735.31
2019-04-29T00:14:24.583Z,101735.72
2019-04-29T00:17:03.354Z,101736.02
2019-04-29T00:19:49.439Z,101735.21
2019-04-29T00:22:18.965Z,101731.62
2019-04-29T00:24:48.492Z,101738.33
2019-04-29T00:27:18.111Z,101740.39
2019-04-29T00:29:47.630Z,101740.04
2019-04-29T00:32:17.154Z,101743.17
2019-04-29T00:34:46.663Z,101745.45
2019-04-29T00:37:27.757Z,101737.27
2019-04-29T00:40:25.628Z,101741.09
2019-04-29T00:43:09.257Z,101687.78
2019-04-29T00:45:38.849Z,101743.17
2019-04-29T00:48:08.384Z,101744.18
2019-04-29T00:50:38.980Z,101744.20
2019-04-29T00:53:08.534Z,101758.33
2019-04-29T00:55:38.061Z,101755.37
2019-04-29T00:58:07.611Z,101745.98
2019-04-29T01:00:40.028Z,101748.42
2019-04-29T01:03:11.169Z,101748.94
2019-04-29T01:05:40.757Z,101747.34
2019-04-29T01:08:10.287Z,101747.30
2019-04-29T01:10:39.821Z,101750.11
2019-04-29T01:13:09.438Z,101744.46
2019-04-29T01:15:39.042Z,101740.30
2019-04-29T01:18:08.600Z,101745.44
2019-04-29T01:20:38.123Z,101740.56
2019-04-29T01:23:07.665Z,101739.50
2019-04-29T01:25:37.178Z,101747.41
2019-04-29T01:28:21.791Z,101745.66
2019-04-29T01:30:55.896Z,101753.71
2019-04-29T01:33:25.446Z,101757.75
2019-04-29T01:36:25.606Z,101755.64
2019-04-29T01:38:56.815Z,101760.73
2019-04-29T01:41:28.103Z,101755.78
2019-04-29T01:44:02.006Z,101755.97
2019-04-29T01:46:31.515Z,101749.27
2019-04-29T01:49:01.056Z,101750.94
2019-04-29T01:51:30.571Z,101748.42
2019-04-29T01:54:00.177Z,101751.05
2019-04-29T01:56:29.844Z,101750.10
2019-04-29T01:59:00.223Z,101753.88
2019-04-29T02:01:29.775Z,101751.15
2019-04-29T02:03:59.301Z,101752.67
2019-04-29T02:06:28.838Z,101761.88
2019-04-29T02:08:58.386Z,101756.30
2019-04-29T02:11:27.949Z,101751.33
2019-04-29T02:13:57.447Z,101763.27
2019-04-29T02:16:26.998Z,101756.16
2019-04-29T02:18:56.536Z,101760.60
2019-04-29T02:21:26.076Z,101768.95
2019-04-29T02:24:04.765Z,101763.86
2019-04-29T02:26:34.322Z,101760.25
2019-04-29T02:29:04.220Z,101761.67
2019-04-29T02:31:40.482Z,101766.29
2019-04-29T02:34:10.080Z,101761.20
2019-04-29T02:36:39.707Z,101753.20
2019-04-29T02:39:20.319Z,101749.85
2019-04-29T02:42:08.987Z,101751.72
2019-04-29T02:44:38.512Z,101750.59
2019-04-29T02:47:08.054Z,101749.59
2019-04-29T02:49:37.601Z,101748.18
2019-04-29T02:52:07.132Z,101754.95
2019-04-29T02:54:36.671Z,101754.66
2019-04-29T02:57:20.323Z,101753.67
2019-04-29T02:59:52.936Z,101752.88
2019-04-29T03:02:41.030Z,101745.92
2019-04-29T03:05:13.688Z,101740.83
2019-04-29T03:07:43.280Z,101750.86
2019-04-29T03:10:12.867Z,101742.23
2019-04-29T03:12:42.366Z,101744.45
2019-04-29T03:15:12.440Z,101742.70
2019-04-29T03:17:42.087Z,101737.94
2019-04-29T03:20:20.689Z,101738.73
2019-04-29T03:22:50.440Z,101734.40
2019-04-29T03:25:19.946Z,101737.42
2019-04-29T03:27:50.556Z,101741.56
2019-04-29T03:30:20.114Z,101739.49
2019-04-29T03:32:49.657Z,101739.89
2019-04-29T03:35:19.226Z,101734.87
2019-04-29T03:37:48.755Z,101736.00
2019-04-29T03:40:18.285Z,101731.11
2019-04-29T03:42:47.872Z,101735.49
2019-04-29T03:45:17.395Z,101726.92
2019-04-29T03:47:46.991Z,101729.51
2019-04-29T03:50:16.514Z,101732.88
2019-04-29T03:52:46.051Z,101740.52
2019-04-29T03:55:16.547Z,101740.36
2019-04-29T03:57:46.054Z,101751.09
2019-04-29T04:00:17.407Z,101751.80
2019-04-29T04:03:05.093Z,101751.20
2019-04-29T04:05:48.475Z,101757.37
2019-04-29T04:08:21.488Z,101761.34
2019-04-29T04:10:51.007Z,101760.98
2019-04-29T04:13:20.570Z,101762.48
2019-04-29T04:15:50.098Z,101759.86
2019-04-29T04:18:25.738Z,101768.03
2019-04-29T04:20:55.249Z,101771.45
2019-04-29T04:23:24.764Z,101776.46
2019-04-29T04:25:54.339Z,101775.66
2019-04-29T04:28:23.932Z,101776.89
2019-04-29T04:30:53.479Z,101772.71
2019-04-29T04:33:22.993Z,101777.08
2019-04-29T04:35:52.539Z,101771.52
2019-04-29T04:38:22.076Z,101763.33
2019-04-29T04:40:58.407Z,101772.99
2019-04-29T04:43:28.048Z,101776.53
2019-04-29T04:45:58.562Z,101767.95
2019-04-29T04:48:28.081Z,101767.39
2019-04-29T04:50:58.611Z,101766.61
2019-04-29T04:53:28.154Z,101772.39
2019-04-29T04:55:59.993Z,101773.38
2019-04-29T04:58:29.512Z,101772.03
2019-04-29T05:00:59.048Z,101774.17
2019-04-29T05:03:28.563Z,101770.64
2019-04-29T05:05:58.094Z,101773.67
2019-04-29T05:08:28.602Z,101775.19
2019-04-29T05:10:58.152Z,101776.53
2019-04-29T05:13:28.771Z,101776.80
2019-04-29T05:15:58.393Z,101785.58
2019-04-29T05:18:27.939Z,101785.59
2019-04-29T05:20:57.574Z,101791.48
2019-04-29T05:23:27.098Z,101790.48
2019-04-29T05:25:56.620Z,101796.91
2019-04-29T05:28:26.266Z,101801.47
2019-04-29T05:30:55.783Z,101808.39
2019-04-29T05:33:25.328Z,101800.20
2019-04-29T05:36:13.893Z,101797.59
2019-04-29T05:38:47.267Z,101802.29
2019-04-29T05:41:16.992Z,101797.12
2019-04-29T05:44:08.595Z,101799.72
2019-04-29T05:46:45.117Z,101799.20
2019-04-29T05:49:17.584Z,101806.22
2019-04-29T05:52:18.047Z,101791.34
2019-04-29T05:54:47.673Z,101795.84
2019-04-29T05:57:20.414Z,101799.17
2019-04-29T05:59:49.541Z,101806.13
2019-04-29T06:02:19.166Z,101805.78
2019-04-29T06:04:52.328Z,101808.00
2019-04-29T06:07:21.664Z,101802.86
2019-04-29T06:09:51.186Z,101810.11
2019-04-29T06:12:20.755Z,101802.56
2019-04-29T06:14:50.290Z,101814.14
2019-04-29T06:17:19.820Z,101810.27
2019-04-29T06:19:49.368Z,101811.44
2019-04-29T06:22:18.902Z,101813.25
2019-04-29T06:24:48.419Z,101810.94
2019-04-29T06:27:17.963Z,101808.00
2019-04-29T06:29:47.497Z,101811.39
2019-04-29T06:32:20.209Z,101813.12
2019-04-29T06:34:48.286Z,101820.91
2019-04-29T06:37:17.850Z,101824.09
2019-04-29T06:39:47.379Z,101825.93
2019-04-29T06:42:19.630Z,101829.33
2019-04-29T06:44:49.257Z,101831.48
2019-04-29T06:47:19.406Z,101829.55
2019-04-29T06:49:48.955Z,101827.27
2019-04-29T06:52:18.492Z,101830.10
2019-04-29T06:54:48.037Z,101828.16
2019-04-29T06:57:17.583Z,101826.27
2019-04-29T06:59:47.526Z,101831.13
2019-04-29T07:02:19.181Z,101831.67
2019-04-29T07:04:48.695Z,101832.41
2019-04-29T07:07:19.217Z,101832.05
2019-04-29T07:09:48.748Z,101829.50
2019-04-29T07:12:18.267Z,101826.56
2019-04-29T07:14:47.803Z,101829.78
2019-04-29T07:17:17.361Z,101826.77
2019-04-29T07:19:46.875Z,101825.02
2019-04-29T07:22:16.437Z,101822.25
2019-04-29T07:24:45.974Z,101825.48
2019-04-29T07:27:15.516Z,101833.63
2019-04-29T07:29:45.072Z,101831.92
2019-04-29T07:32:14.621Z,101826.92
2019-04-29T07:34:44.144Z,101834.69
2019-04-29T07:37:16.524Z,101836.55
2019-04-29T07:39:44.910Z,101829.48
2019-04-29T07:42:14.508Z,101839.65
2019-04-29T07:45:03.108Z,101836.73
2019-04-29T07:47:33.098Z,101829.51
2019-04-29T07:50:02.724Z,101837.00
2019-04-29T07:52:32.249Z,101831.13
2019-04-29T07:55:01.780Z,101833.74
2019-04-29T07:57:31.310Z,101830.41
2019-04-29T08:00:00.822Z,101832.02
2019-04-29T08:02:32.029Z,101830.33
2019-04-29T08:05:01.581Z,101826.47
2019-04-29T08:07:31.122Z,101826.58
2019-04-29T08:10:00.725Z,101819.22
2019-04-29T08:12:31.259Z,101815.22
2019-04-29T08:15:07.500Z,101818.20
2019-04-29T08:17:32.611Z,101817.27
2019-04-29T08:20:05.219Z,101817.93
2019-04-29T08:22:33.374Z,101816.14
2019-04-29T08:25:02.903Z,101810.17
2019-04-29T08:27:39.840Z,101813.69
2019-04-29T08:30:06.734Z,101820.91
2019-04-29T08:32:36.424Z,101821.62
2019-04-29T08:35:06.698Z,101820.98
2019-04-29T08:37:36.224Z,101822.70
2019-04-29T08:40:16.121Z,101826.64
2019-04-29T08:42:41.375Z,101825.88
2019-04-29T08:45:39.005Z,101820.66
2019-04-29T08:48:06.511Z,101820.66
2019-04-29T08:50:36.038Z,101824.62
2019-04-29T08:53:05.692Z,101827.91
2019-04-29T08:55:36.470Z,101827.80
2019-04-29T08:58:06.902Z,101819.83
2019-04-29T09:00:37.577Z,101828.69
2019-04-29T09:03:07.184Z,101825.34
2019-04-29T09:05:36.699Z,101826.04
2019-04-29T09:08:06.234Z,101819.27
2019-04-29T09:10:36.796Z,101819.09
2019-04-29T09:13:07.347Z,101813.42
2019-04-29T09:15:36.960Z,101818.67
2019-04-29T09:18:06.474Z,101818.52
2019-04-29T09:20:37.071Z,101812.44
2019-04-29T09:23:09.677Z,101812.39
2019-04-29T09:26:01.900Z,101814.18
2019-04-29T09:28:27.219Z,101816.14
2019-04-29T09:30:52.114Z,101812.94
2019-04-29T09:33:21.659Z,101807.02
2019-04-29T09:35:51.189Z,101814.20
2019-04-29T09:38:20.713Z,101816.73
2019-04-29T09:40:59.812Z,101815.30
2019-04-29T09:43:38.235Z,101810.75
2019-04-29T09:46:11.018Z,101814.05
2019-04-29T09:48:40.562Z,101805.45
2019-04-29T09:51:17.180Z,101806.83
2019-04-29T09:53:41.459Z,101809.74
2019-04-29T09:56:11.014Z,101807.33
2019-04-29T09:58:40.668Z,101807.59
2019-04-29T10:01:30.371Z,101805.13
2019-04-29T10:04:06.317Z,101803.65
2019-04-29T10:06:37.306Z,101805.72
2019-04-29T10:09:09.181Z,101807.78
2019-04-29T10:11:39.490Z,101806.59
2019-04-29T10:14:09.131Z,101803.19
2019-04-29T10:16:53.657Z,101795.56
2019-04-29T10:19:29.586Z,101791.73
2019-04-29T10:21:59.107Z,101794.47
2019-04-29T10:24:28.645Z,101789.98
2019-04-29T10:26:58.168Z,101787.02
2019-04-29T10:29:29.098Z,101787.81
2019-04-29T10:32:02.355Z,101782.08
2019-04-29T10:34:31.538Z,101789.52
2019-04-29T10:37:01.168Z,101784.97
2019-04-29T10:39:42.189Z,101781.75
2019-04-29T10:42:11.088Z,101775.40
2019-04-29T10:44:58.704Z,101783.32
2019-04-29T10:47:45.163Z,101785.95
2019-04-29T10:50:18.979Z,101771.56
2019-04-29T10:52:48.492Z,101774.12
2019-04-29T10:55:18.386Z,101771.73
2019-04-29T10:57:49.683Z,101766.96
2019-04-29T11:00:32.125Z,101768.40
2019-04-29T11:03:01.655Z,101760.72
2019-04-29T11:05:33.016Z,101761.71
2019-04-29T11:08:11.574Z,101761.80
2019-04-29T11:10:41.115Z,101759.81
2019-04-29T11:13:10.682Z,101758.49
2019-04-29T11:15:40.362Z,101761.10
2019-04-29T11:18:09.972Z,101758.56
2019-04-29T11:20:39.530Z,101759.33
2019-04-29T11:23:21.333Z,101758.28
2019-04-29T11:26:19.519Z,101758.44
2019-04-29T11:28:51.278Z,101760.50
2019-04-29T11:31:20.990Z,101756.88
2019-04-29T11:34:15.812Z,101757.11
2019-04-29T11:36:45.946Z,101760.43
2019-04-29T11:39:16.214Z,101753.39
2019-04-29T11:41:50.013Z,101752.97
2019-04-29T11:44:22.002Z,101740.64
2019-04-29T11:46:50.664Z,101741.00
2019-04-29T11:49:23.726Z,101737.46
2019-04-29T11:52:08.455Z,101744.33
2019-04-29T11:54:24.716Z,101740.04
2019-04-29T11:56:54.233Z,101735.66
2019-04-29T11:59:37.779Z,101728.85
2019-04-29T12:02:44.687Z,101729.34
2019-04-29T12:05:19.630Z,101731.67
2019-04-29T12:07:49.364Z,101696.34
2019-04-29T12:10:20.219Z,101723.92
2019-04-29T12:12:50.433Z,101728.09
2019-04-29T12:15:31.295Z,101728.97
2019-04-29T12:18:10.054Z,101717.30
2019-04-29T12:21:01.558Z,101705.25
2019-04-29T12:23:31.153Z,101707.50
2019-04-29T12:26:03.001Z,101717.29
2019-04-29T12:28:31.989Z,101710.36
2019-04-29T12:31:10.313Z,101714.38
2019-04-29T12:33:42.879Z,101706.62
2019-04-29T12:36:16.190Z,101701.81
2019-04-29T12:39:02.620Z,101701.28
2019-04-29T12:42:10.556Z,101694.59
2019-04-29T12:44:46.140Z,101701.70
2019-04-29T12:47:26.624Z,101701.41
2019-04-29T12:49:52.404Z,101700.53
2019-04-29T12:52:22.563Z,101702.97
2019-04-29T12:54:52.043Z,101699.25
2019-04-29T12:57:24.640Z,101682.44
2019-04-29T12:59:54.871Z,101677.41
2019-04-29T13:02:42.908Z,101677.23
2019-04-29T13:05:37.650Z,101678.77
2019-04-29T13:08:18.687Z,101683.45
2019-04-29T13:10:57.595Z,101686.56
2019-04-29T13:13:30.840Z,101685.86
2019-04-29T13:16:22.103Z,101686.42
2019-04-29T13:19:20.338Z,101620.04
2019-04-29T13:21:48.482Z,101671.83
2019-04-29T13:24:24.219Z,101665.94
2019-04-29T13:26:49.251Z,101656.87
2019-04-29T13:29:26.874Z,101654.31
2019-04-29T13:31:51.438Z,101659.38
2019-04-29T13:34:30.991Z,101657.53
2019-04-29T13:37:07.794Z,101658.55
2019-04-29T13:39:39.789Z,101650.98
2019-04-29T13:42:09.021Z,101653.13
2019-04-29T13:44:42.047Z,101654.75
2019-04-29T13:47:29.215Z,101653.52
2019-04-29T13:50:18.082Z,101658.66
2019-04-29T13:52:39.976Z,101649.38
2019-04-29T13:55:17.007Z,101653.55
2019-04-29T13:57:40.888Z,101648.73
2019-04-29T14:00:26.374Z,101647.51
2019-04-29T14:03:00.037Z,101649.71
2019-04-29T14:05:32.434Z,101642.91
2019-04-29T14:08:01.220Z,101646.17
2019-04-29T14:10:30.853Z,101638.30
2019-04-29T14:13:09.665Z,101640.63
2019-04-29T14:15:33.996Z,101649.77
2019-04-29T14:18:06.821Z,101645.19
2019-04-29T14:20:34.336Z,101632.12
2019-04-29T14:23:03.912Z,101635.93
2019-04-29T14:25:33.592Z,101638.54
2019-04-29T14:28:03.247Z,101604.67
2019-04-29T14:30:38.984Z,101635.34
2019-04-29T14:33:04.144Z,101637.68
2019-04-29T14:35:39.470Z,101625.91
2019-04-29T14:38:09.010Z,101631.62
2019-04-29T14:40:39.036Z,101629.95
2019-04-29T14:43:32.179Z,101629.47
2019-04-29T14:46:37.726Z,101634.33
2019-04-29T14:49:14.359Z,101630.78
2019-04-29T14:51:44.010Z,101629.81
2019-04-29T14:54:13.632Z,101630.81
2019-04-29T14:56:43.202Z,101632.72
2019-04-29T14:59:13.001Z,101628.38
2019-04-29T15:01:54.220Z,101638.06
2019-04-29T15:04:26.177Z,101636.49
2019-04-29T15:06:55.768Z,101636.92
2019-04-29T15:09:25.372Z,101639.30
2019-04-29T15:12:21.194Z,101635.73
2019-04-29T15:15:15.997Z,101639.47
2019-04-29T15:17:53.048Z,101634.58
2019-04-29T15:20:31.406Z,101639.65
2019-04-29T15:23:00.438Z,101640.18
2019-04-29T15:25:30.050Z,101640.45
2019-04-29T15:27:59.545Z,101645.46
2019-04-29T15:30:31.681Z,101637.44
2019-04-29T15:33:01.965Z,101632.66
2019-04-29T15:35:31.545Z,101631.48
2019-04-29T15:38:01.118Z,101642.02
2019-04-29T15:40:30.722Z,101640.39
2019-04-29T15:43:00.370Z,101633.50
2019-04-29T15:45:32.495Z,101644.00
2019-04-29T15:48:01.180Z,101633.91
2019-04-29T15:50:32.671Z,101634.91
2019-04-29T15:53:02.993Z,101634.41
2019-04-29T15:55:34.928Z,101622.19
2019-04-29T15:58:05.008Z,101631.13
2019-04-29T16:00:37.835Z,101631.13
2019-04-29T16:03:07.201Z,101627.05
2019-04-29T16:06:19.705Z,101631.20
2019-04-29T16:08:52.136Z,101628.75
2019-04-29T16:11:39.653Z,101580.64
2019-04-29T16:14:14.199Z,101627.03
2019-04-29T16:16:43.767Z,101627.64
2019-04-29T16:19:13.344Z,101629.09
2019-04-29T16:21:42.861Z,101630.09
2019-04-29T16:24:25.949Z,101625.45
2019-04-29T16:26:44.697Z,101624.87
2019-04-29T16:29:15.389Z,101622.69
2019-04-29T16:31:45.221Z,101622.30
2019-04-29T16:34:14.994Z,101617.36
2019-04-29T16:36:50.005Z,101614.36
2019-04-29T16:39:15.971Z,101603.72
2019-04-29T16:42:07.703Z,101600.91
2019-04-29T16:44:37.320Z,101601.38
2019-04-29T16:47:13.457Z,101598.23
2019-04-29T16:49:40.968Z,101606.34
2019-04-29T16:52:10.821Z,101564.30
2019-04-29T16:54:40.430Z,101598.39
2019-04-29T16:57:10.046Z,101598.65
2019-04-29T16:59:39.612Z,101598.23
2019-04-29T17:02:09.180Z,101605.28
2019-04-29T17:04:38.731Z,101601.58
2019-04-29T17:07:13.557Z,101597.68
2019-04-29T17:09:48.644Z,101602.65
2019-04-29T17:12:18.213Z,101601.06
2019-04-29T17:15:03.005Z,101601.72
2019-04-29T17:17:28.805Z,101601.72
2019-04-29T17:19:54.285Z,101603.12
2019-04-29T17:22:26.012Z,101595.57
2019-04-29T17:24:55.279Z,101598.38
2019-04-29T17:27:41.969Z,101602.04
2019-04-29T17:30:29.981Z,101606.50
2019-04-29T17:33:28.362Z,101606.33
2019-04-29T17:35:52.590Z,101600.09
2019-04-29T17:38:22.142Z,101555.80
2019-04-29T17:40:51.850Z,101602.13
2019-04-29T17:43:43.022Z,101605.69
2019-04-29T17:46:29.062Z,101602.02
2019-04-29T17:49:22.198Z,101602.75
2019-04-29T17:51:50.075Z,101602.30
2019-04-29T17:54:25.557Z,101605.88
2019-04-29T17:57:25.489Z,101602.95
2019-04-29T17:59:56.001Z,101605.88
2019-04-29T18:02:42.228Z,101604.73
2019-04-29T18:05:21.124Z,101604.69
2019-04-29T18:07:56.463Z,101612.44
2019-04-29T18:10:38.556Z,101596.13
2019-04-29T18:13:07.306Z,101608.39
2019-04-29T18:15:47.140Z,101619.42
2019-04-29T18:18:17.341Z,101619.47
2019-04-29T18:21:18.013Z,101619.72
2019-04-29T18:24:08.123Z,101620.43
2019-04-29T18:26:44.223Z,101624.84
2019-04-29T18:29:16.079Z,101532.80
2019-04-29T18:31:46.610Z,101625.67
2019-04-29T18:34:16.264Z,101623.91
2019-04-29T18:36:46.791Z,101629.34
2019-04-29T18:39:25.005Z,101609.62
2019-04-29T18:41:51.941Z,101633.62
2019-04-29T18:44:21.514Z,101633.62
2019-04-29T18:46:53.951Z,101635.36
2019-04-29T18:49:22.299Z,101636.75
2019-04-29T18:51:52.797Z,101641.41
2019-04-29T18:54:24.827Z,101641.41
2019-04-29T18:56:53.585Z,101647.88
2019-04-29T18:59:30.369Z,101655.30
2019-04-29T19:01:54.895Z,101655.92
2019-04-29T19:04:41.632Z,101658.38
2019-04-29T19:07:11.252Z,101654.64
2019-04-29T19:09:42.835Z,101664.03
2019-04-29T19:12:12.408Z,101661.63
2019-04-29T19:14:41.961Z,101661.45
2019-04-29T19:17:11.501Z,101666.71
2019-04-29T19:19:41.085Z,101667.28
2019-04-29T19:22:11.621Z,101673.28
2019-04-29T19:24:48.029Z,101671.18
2019-04-29T19:27:16.452Z,101672.98
2019-04-29T19:29:46.144Z,101676.19
2019-04-29T19:32:18.834Z,101677.95
2019-04-29T19:34:50.171Z,101682.17
2019-04-29T19:37:18.303Z,101688.30
2019-04-29T19:39:48.044Z,101688.84
2019-04-29T19:42:28.678Z,101662.88
2019-04-29T19:44:48.949Z,101677.30
2019-04-29T19:47:18.529Z,101678.75
2019-04-29T19:49:48.132Z,101677.07
2019-04-29T19:52:27.892Z,101676.95
2019-04-29T19:54:48.986Z,101681.83
2019-04-29T19:57:18.541Z,101684.80
2019-04-29T19:59:51.833Z,101683.84
2019-04-29T20:02:19.798Z,101675.45
2019-04-29T20:04:59.282Z,101679.96
2019-04-29T20:07:28.782Z,101673.34
2019-04-29T20:10:03.789Z,101680.86
2019-04-29T20:12:30.171Z,101679.07
2019-04-29T20:15:02.327Z,101683.59
2019-04-29T20:17:53.449Z,101679.45
2019-04-29T20:20:46.261Z,101683.71
2019-04-29T20:23:24.903Z,101677.70
2019-04-29T20:25:48.515Z,101690.41
2019-04-29T20:28:21.370Z,101684.63
2019-04-29T20:30:50.494Z,101679.72
2019-04-29T20:33:20.909Z,101686.43
2019-04-29T20:35:50.725Z,101683.80
2019-04-29T20:38:20.480Z,101688.84
2019-04-29T20:40:50.124Z,101689.92
2019-04-29T20:43:20.828Z,101692.13
2019-04-29T20:45:51.206Z,101694.41
2019-04-29T20:48:21.024Z,101694.11
2019-04-29T20:50:52.533Z,101690.41
2019-04-29T20:53:46.110Z,101692.36
2019-04-29T20:56:24.122Z,101693.83
2019-04-29T20:58:47.419Z,101697.72
2019-04-29T21:01:26.223Z,101692.09
2019-04-29T21:03:56.657Z,101690.83
2019-04-29T21:06:26.417Z,101688.29
2019-04-29T21:08:55.938Z,101693.70
2019-04-29T21:11:37.523Z,101690.43
2019-04-29T21:14:33.826Z,101688.23
2019-04-29T21:17:09.430Z,101689.51
2019-04-29T21:19:34.599Z,101694.28
2019-04-29T21:22:05.211Z,101697.85
2019-04-29T21:24:35.924Z,101698.83
2019-04-29T21:27:05.614Z,101695.80
2019-04-29T21:29:35.800Z,101692.48
2019-04-29T21:32:05.939Z,101693.40
2019-04-29T21:34:48.822Z,101694.13
2019-04-29T21:37:40.079Z,101691.69
2019-04-29T21:40:20.436Z,101696.67
2019-04-29T21:42:53.257Z,101691.16
2019-04-29T21:45:22.785Z,101695.70
2019-04-29T21:47:54.388Z,101695.70
2019-04-29T21:50:29.105Z,101698.84
2019-04-29T21:53:01.697Z,101695.47
2019-04-29T21:55:29.355Z,101696.81
2019-04-29T21:57:58.780Z,101698.20
2019-04-29T22:00:28.635Z,101702.69
2019-04-29T22:02:59.868Z,101696.52
2019-04-29T22:05:29.472Z,101710.70
2019-04-29T22:07:59.003Z,101693.94
2019-04-29T22:10:29.134Z,101713.22
2019-04-29T22:13:02.071Z,101705.99
2019-04-29T22:15:33.158Z,101710.37
2019-04-29T22:18:01.860Z,101715.36
2019-04-29T22:20:37.566Z,101713.27
2019-04-29T22:23:08.391Z,101718.87
2019-04-29T22:25:36.653Z,101723.92
2019-04-29T22:28:06.291Z,101712.98
2019-04-29T22:30:35.820Z,101718.73
2019-04-29T22:33:06.040Z,101719.90
2019-04-29T22:35:39.185Z,101727.17
2019-04-29T22:38:07.791Z,101725.41
2019-04-29T22:40:41.124Z,101726.53
2019-04-29T22:43:25.350Z,101728.70
2019-04-29T22:45:55.006Z,101724.45
2019-04-29T22:48:25.034Z,101714.88
2019-04-29T22:50:55.613Z,101726.71
2019-04-29T22:53:25.286Z,101731.59
2019-04-29T22:55:56.539Z,101721.95
2019-04-29T22:58:26.163Z,101728.55
2019-04-29T23:00:55.777Z,101728.55
2019-04-29T23:03:25.323Z,101732.45
2019-04-29T23:05:55.925Z,101739.00
2019-04-29T23:08:29.717Z,101731.80
2019-04-29T23:10:59.771Z,101730.17
2019-04-29T23:13:31.095Z,101730.30
2019-04-29T23:16:02.128Z,101726.53
2019-04-29T23:18:38.496Z,101724.08
2019-04-29T23:21:23.246Z,101710.60
2019-04-29T23:24:01.983Z,101715.03
2019-04-29T23:26:34.826Z,101712.98
2019-04-29T23:29:03.630Z,101709.44
2019-04-29T23:31:35.146Z,101706.98
2019-04-29T23:34:05.829Z,101707.21
2019-04-29T23:36:36.496Z,101703.39
2019-04-29T23:39:06.700Z,101701.69
2019-04-29T23:41:37.929Z,101708.03
2019-04-29T23:44:08.951Z,101703.67
2019-04-29T23:46:38.490Z,101705.78
2019-04-29T23:49:08.037Z,101699.54
2019-04-29T23:51:37.928Z,101703.39
2019-04-29T23:54:08.159Z,101708.51
2019-04-29T23:56:51.365Z,101703.84
2019-04-29T23:59:25.939Z,101711.58
